»·PEaware :: N98Q KSNA-KSBA

N98Q :: KSNA-KSBA

FLIGHT INFORMATION

Flight Status: Arrived
Operator: Privately registered:
United States
More flights under this callsign
Pilot: Ian B. (280)
Aircraft: CESSNA 501 CITATION 1SP
(C501)
More flights by this aircraft type
Origin: KSNA John Wayne-Orange Co
United States
Destination: KSBA Santa Barbara Mun
United States
More flights between these airports :: More routes between these airports
Route: SXC V208 VTU KWANG
File this flight plan on PilotEdge
Remarks: TEC cstn28
Altitude:
(Current/Filed)
10,000ft
Speed:
(Current/Filed)
340kts
Departed: 30-Dec-15 08:43 AM
Arrived: 30-Dec-15 09:14 AM
Distance/Time
Traveled:
108nm/0:31
Distance/Time
To Go:
Arrived

Flight Plot

Page will automatically refresh every two minutes.


Map Options




Map Legend


Flown Route
Filed Route
Departure Airport
Arrival Airport
Navaid (VOR, NDB)
Fix

Horizontal Profiles

Position Reports

Time Latitude Longitude Heading Altitude Ground
Speed
30-Dec-15 08:16 33.670870 -117.867591 32 60ft 0kts
30-Dec-15 08:17 33.670870 -117.867591 32 60ft 0kts
30-Dec-15 08:18 33.670870 -117.867591 32 60ft 0kts
30-Dec-15 08:19 33.670870 -117.867591 32 60ft 0kts
30-Dec-15 08:20 33.670870 -117.867591 32 60ft 0kts
30-Dec-15 08:21 33.670870 -117.867591 32 60ft 0kts
30-Dec-15 08:22 33.670870 -117.867591 32 60ft 0kts
30-Dec-15 08:23 33.670870 -117.867591 32 60ft 0kts
30-Dec-15 08:24 33.670870 -117.867591 32 60ft 0kts
30-Dec-15 08:25 33.670870 -117.867591 32 60ft 0kts
30-Dec-15 08:26 33.670870 -117.867591 32 60ft 0kts
30-Dec-15 08:27 33.670870 -117.867591 32 60ft 0kts
30-Dec-15 08:28 33.670870 -117.867591 32 60ft 0kts
30-Dec-15 08:29 33.670870 -117.867591 32 60ft 0kts
30-Dec-15 08:30 33.670870 -117.867591 32 60ft 0kts
30-Dec-15 08:31 33.670870 -117.867591 32 60ft 0kts
30-Dec-15 08:32 33.670870 -117.867591 32 60ft 0kts
30-Dec-15 08:33 33.671994 -117.868271 28 60ft 10kts
30-Dec-15 08:34 33.674077 -117.867142 24 60ft 8kts
30-Dec-15 08:35 33.676376 -117.865664 27 60ft 10kts
30-Dec-15 08:36 33.679260 -117.863852 27 60ft 11kts
30-Dec-15 08:37 33.680688 -117.863168 300 60ft 0kts
30-Dec-15 08:38 33.680990 -117.863830 297 60ft 11kts
30-Dec-15 08:39 33.667411 -117.874650 211 418ft 177kts
30-Dec-15 08:40 33.610344 -117.891923 185 3235ft 241kts
30-Dec-15 08:41 33.544697 -117.899531 186 4992ft 279kts
30-Dec-15 08:42 33.468883 -117.915711 225 6782ft 275kts
30-Dec-15 08:43 33.449436 -117.998193 263 8571ft 267kts
30-Dec-15 08:44 33.434653 -118.086896 262 9955ft 282kts
30-Dec-15 08:45 33.415652 -118.182704 257 10185ft 306kts
30-Dec-15 08:46 33.392901 -118.280728 264 10266ft 281kts
30-Dec-15 08:47 33.374418 -118.376152 269 10028ft 302kts
30-Dec-15 08:48 33.424156 -118.443138 323 10163ft 270kts
30-Dec-15 08:49 33.463054 -118.520264 287 9802ft 283kts
30-Dec-15 08:50 33.497344 -118.600650 313 9923ft 271kts
30-Dec-15 08:51 33.546186 -118.668995 307 9925ft 273kts
30-Dec-15 08:52 33.590808 -118.742422 311 10022ft 299kts
30-Dec-15 08:53 33.648071 -118.817022 311 10005ft 308kts
30-Dec-15 08:54 33.699851 -118.899141 307 10039ft 311kts
30-Dec-15 08:55 33.753595 -118.979929 326 9943ft 314kts
30-Dec-15 08:56 33.834910 -119.010844 355 10010ft 314kts
30-Dec-15 08:57 33.921411 -119.023253 349 9974ft 313kts
30-Dec-15 08:58 34.006167 -119.044912 354 9942ft 316kts
30-Dec-15 08:59 34.093624 -119.045749 355 9943ft 316kts
30-Dec-15 09:00 34.143820 -119.101953 295 9941ft 319kts
30-Dec-15 09:01 34.175885 -119.201279 299 9942ft 318kts
30-Dec-15 09:02 34.213298 -119.297693 296 10002ft 318kts
30-Dec-15 09:03 34.249881 -119.394602 299 9940ft 319kts
30-Dec-15 09:04 34.289328 -119.490265 297 8043ft 302kts
30-Dec-15 09:05 34.324844 -119.579403 298 7027ft 309kts
30-Dec-15 09:06 34.361723 -119.668750 298 4867ft 263kts
30-Dec-15 09:07 34.401569 -119.725282 317 3805ft 200kts
30-Dec-15 09:08 34.427815 -119.778519 279 1410ft 149kts
30-Dec-15 09:09 34.428140 -119.822259 269 307ft 117kts
30-Dec-15 09:10 34.427600 -119.848375 269 17ft 21kts
30-Dec-15 09:11 34.426465 -119.849171 88 17ft 21kts
30-Dec-15 09:12 34.426662 -119.840112 87 17ft 29kts
30-Dec-15 09:13 34.423516 -119.837382 174 17ft 20kts

Navigation Log

Ident Type
Flight plan parsing failed, navigation log unavailable